createdAt,value
2018-06-25T00:01:19.654Z,30.90
2018-06-25T00:06:22.978Z,30.90
2018-06-25T00:08:56.422Z,30.90
2018-06-25T00:11:28.506Z,30.80
2018-06-25T00:14:00.470Z,30.70
2018-06-25T00:16:32.376Z,30.70
2018-06-25T00:19:04.547Z,30.60
2018-06-25T00:21:36.304Z,30.50
2018-06-25T00:24:08.066Z,30.40
2018-06-25T00:26:40.051Z,30.40
2018-06-25T00:29:12.224Z,30.30
2018-06-25T00:31:43.951Z,30.20
2018-06-25T00:34:16.226Z,30.20
2018-06-25T00:36:47.838Z,30.20
2018-06-25T00:39:19.802Z,30.20
2018-06-25T00:41:51.678Z,30.20
2018-06-25T00:44:24.395Z,30.20
2018-06-25T00:46:56.466Z,30.20
2018-06-25T00:49:28.634Z,30.20
2018-06-25T00:52:00.289Z,30.20
2018-06-25T00:54:32.223Z,30.20
2018-06-25T00:57:04.164Z,30.20
2018-06-25T00:59:51.965Z,30.20
2018-06-25T01:02:23.866Z,30.20
2018-06-25T01:04:56.002Z,30.10
2018-06-25T01:07:27.936Z,30.10
2018-06-25T01:10:01.138Z,30.20
2018-06-25T01:12:32.761Z,30.20
2018-06-25T01:15:04.846Z,30.20
2018-06-25T01:17:36.640Z,30.00
2018-06-25T01:20:08.770Z,30.00
2018-06-25T01:22:40.594Z,29.90
2018-06-25T01:25:12.506Z,29.90
2018-06-25T01:27:44.246Z,29.90
2018-06-25T01:30:21.216Z,30.00
2018-06-25T01:32:52.990Z,29.90
2018-06-25T01:38:00.629Z,30.00
2018-06-25T01:40:32.629Z,30.00
2018-06-25T01:43:04.499Z,30.00
2018-06-25T01:45:36.797Z,29.90
2018-06-25T01:48:08.502Z,30.00
2018-06-25T01:50:40.612Z,30.00
2018-06-25T01:53:12.287Z,30.00
2018-06-25T01:55:44.374Z,29.90
2018-06-25T01:58:16.288Z,29.90
2018-06-25T02:00:48.315Z,30.00
2018-06-25T02:03:20.070Z,29.90
2018-06-25T02:05:52.382Z,29.90
2018-06-25T02:08:24.311Z,30.00
2018-06-25T02:10:58.600Z,29.90
2018-06-25T02:13:30.086Z,29.90
2018-06-25T02:16:01.911Z,29.90
2018-06-25T02:21:05.249Z,29.80
2018-06-25T02:23:36.977Z,29.90
2018-06-25T02:26:08.943Z,30.00
2018-06-25T02:28:40.662Z,30.00
2018-06-25T02:31:13.205Z,30.00
2018-06-25T02:33:44.726Z,30.10
2018-06-25T02:36:16.841Z,30.10
2018-06-25T02:38:49.159Z,30.20
2018-06-25T02:41:21.200Z,30.30
2018-06-25T02:43:52.893Z,30.30
2018-06-25T02:46:25.122Z,30.40
2018-06-25T02:48:57.038Z,30.50
2018-06-25T02:51:29.246Z,30.60
2018-06-25T02:54:01.185Z,30.60
2018-06-25T02:56:33.403Z,30.70
2018-06-25T02:59:05.477Z,30.80
2018-06-25T03:01:38.891Z,31.00
2018-06-25T03:04:10.406Z,31.00
2018-06-25T03:06:42.840Z,31.20
2018-06-25T03:11:45.802Z,31.30
2018-06-25T03:14:17.582Z,31.40
2018-06-25T03:16:49.517Z,31.50
2018-06-25T03:21:52.432Z,31.90
2018-06-25T03:24:24.302Z,31.80
2018-06-25T03:26:56.304Z,32.00
2018-06-25T03:29:28.237Z,32.10
2018-06-25T03:32:00.184Z,32.30
2018-06-25T03:34:32.057Z,32.40
2018-06-25T03:37:04.529Z,32.40
2018-06-25T03:39:36.414Z,32.30
2018-06-25T03:42:08.540Z,32.40
2018-06-25T03:44:40.460Z,32.60
2018-06-25T03:49:43.290Z,32.90
2018-06-25T03:52:15.235Z,33.00
2018-06-25T03:54:47.210Z,33.10
2018-06-25T03:57:19.207Z,33.10
2018-06-25T03:59:50.910Z,33.30
2018-06-25T04:02:22.807Z,33.40
2018-06-25T04:04:54.759Z,33.60
2018-06-25T04:07:26.782Z,33.80
2018-06-25T04:09:58.635Z,33.90
2018-06-25T04:12:30.670Z,34.10
2018-06-25T04:15:02.527Z,34.30
2018-06-25T04:17:34.364Z,34.50
2018-06-25T04:20:06.273Z,34.70
2018-06-25T04:22:38.164Z,34.90
2018-06-25T04:25:10.043Z,35.10
2018-06-25T04:27:42.231Z,35.30
2018-06-25T04:30:14.116Z,35.40
2018-06-25T04:32:46.122Z,35.70
2018-06-25T04:35:18.097Z,35.90
2018-06-25T04:37:50.227Z,35.90
2018-06-25T04:40:22.158Z,36.10
2018-06-25T04:42:54.624Z,36.30
2018-06-25T04:45:26.434Z,36.40
2018-06-25T04:47:58.771Z,36.80
2018-06-25T04:50:30.667Z,36.90
2018-06-25T04:53:02.975Z,37.30
2018-06-25T04:55:35.070Z,37.90
2018-06-25T04:58:07.066Z,39.00
2018-06-25T05:00:38.906Z,40.10
2018-06-25T05:05:41.771Z,41.70
2018-06-25T05:08:13.836Z,42.40
2018-06-25T05:10:45.747Z,42.80
2018-06-25T05:13:18.460Z,42.10
2018-06-25T05:15:50.542Z,42.00
2018-06-25T05:18:22.455Z,41.90
2018-06-25T05:20:54.207Z,40.60
2018-06-25T05:23:26.319Z,40.70
2018-06-25T05:25:58.326Z,41.20
2018-06-25T05:28:30.413Z,41.60
2018-06-25T05:31:02.315Z,42.30
2018-06-25T05:33:34.445Z,42.80
2018-06-25T05:38:37.659Z,43.80
2018-06-25T05:41:09.422Z,44.10
2018-06-25T05:46:12.259Z,43.10
2018-06-25T05:48:44.463Z,42.40
2018-06-25T05:51:16.094Z,42.70
2018-06-25T05:53:48.308Z,41.20
2018-06-25T05:56:20.055Z,42.30
2018-06-25T05:58:51.886Z,41.80
2018-06-25T06:01:23.675Z,41.60
2018-06-25T06:03:55.898Z,41.40
2018-06-25T06:06:27.553Z,41.20
2018-06-25T06:08:59.544Z,40.90
2018-06-25T06:11:31.498Z,41.20
2018-06-25T06:14:05.083Z,41.80
2018-06-25T06:16:37.131Z,42.60
2018-06-25T06:19:09.031Z,43.80
2018-06-25T06:21:40.939Z,44.60
2018-06-25T06:26:43.937Z,44.80
2018-06-25T06:29:16.124Z,44.70
2018-06-25T06:31:48.015Z,44.70
2018-06-25T06:34:20.566Z,45.20
2018-06-25T06:36:52.314Z,45.70
2018-06-25T06:39:24.563Z,45.10
2018-06-25T06:41:56.295Z,44.60
2018-06-25T06:44:28.609Z,44.40
2018-06-25T06:47:00.576Z,43.90
2018-06-25T06:52:03.243Z,42.70
2018-06-25T06:54:35.397Z,42.50
2018-06-25T06:57:07.221Z,42.30
2018-06-25T07:02:09.922Z,42.00
2018-06-25T07:04:42.121Z,41.90
2018-06-25T07:07:14.036Z,41.60
2018-06-25T07:09:46.202Z,41.30
2018-06-25T07:12:18.080Z,41.40
2018-06-25T07:14:50.754Z,41.50
2018-06-25T07:17:22.666Z,41.80
2018-06-25T07:22:25.469Z,42.80
2018-06-25T07:24:57.512Z,43.20
2018-06-25T07:27:29.303Z,43.10
2018-06-25T07:30:01.255Z,43.60
2018-06-25T07:32:33.171Z,43.30
2018-06-25T07:35:05.370Z,44.10
2018-06-25T07:37:37.386Z,43.80
2018-06-25T07:40:09.251Z,43.20
2018-06-25T07:42:40.906Z,43.30
2018-06-25T07:45:13.057Z,42.90
2018-06-25T07:47:44.747Z,41.90
2018-06-25T07:50:17.463Z,41.00
2018-06-25T07:52:49.336Z,40.30
2018-06-25T07:55:21.375Z,39.90
2018-06-25T07:57:53.326Z,39.70
2018-06-25T08:00:25.459Z,39.90
2018-06-25T08:02:57.291Z,39.70
2018-06-25T08:05:29.425Z,39.70
2018-06-25T08:08:01.243Z,39.60
2018-06-25T08:10:33.519Z,39.30
2018-06-25T08:13:05.315Z,39.30
2018-06-25T08:15:37.909Z,39.40
2018-06-25T08:18:09.820Z,39.50
2018-06-25T08:20:42.132Z,39.40
2018-06-25T08:23:14.166Z,39.30
2018-06-25T08:25:46.045Z,39.50
2018-06-25T08:28:18.050Z,39.40
2018-06-25T08:30:50.318Z,39.40
2018-06-25T08:33:22.239Z,39.60
2018-06-25T08:35:54.307Z,39.50
2018-06-25T08:38:26.173Z,39.40
2018-06-25T08:40:58.987Z,39.40
2018-06-25T08:43:30.895Z,39.40
2018-06-25T08:46:02.982Z,39.40
2018-06-25T08:48:34.877Z,39.40
2018-06-25T08:51:07.091Z,39.30
2018-06-25T08:53:39.102Z,39.50
2018-06-25T08:56:11.283Z,39.40
2018-06-25T08:58:43.545Z,39.00
2018-06-25T09:01:15.862Z,39.40
2018-06-25T09:03:47.747Z,39.50
2018-06-25T09:06:19.676Z,39.40
2018-06-25T09:08:51.351Z,39.70
2018-06-25T09:11:23.214Z,39.60
2018-06-25T09:13:55.071Z,39.40
2018-06-25T09:18:58.842Z,39.40
2018-06-25T09:21:30.990Z,39.30
2018-06-25T09:24:03.169Z,39.50
2018-06-25T09:26:39.523Z,39.30
2018-06-25T09:29:12.362Z,39.20
2018-06-25T09:31:45.296Z,39.00
2018-06-25T09:34:52.381Z,39.20
2018-06-25T09:37:24.502Z,39.00
2018-06-25T09:39:56.184Z,39.30
2018-06-25T09:42:28.179Z,39.40
2018-06-25T09:44:59.982Z,39.20
2018-06-25T09:47:31.971Z,39.10
2018-06-25T09:50:03.808Z,39.20
2018-06-25T09:52:35.966Z,39.00
2018-06-25T09:55:07.970Z,39.00
2018-06-25T09:57:40.198Z,39.20
2018-06-25T10:00:12.302Z,39.10
2018-06-25T10:02:44.682Z,39.20
2018-06-25T10:07:47.524Z,39.10
2018-06-25T10:10:19.331Z,39.00
2018-06-25T10:12:51.398Z,38.90
2018-06-25T10:15:23.274Z,38.90
2018-06-25T10:17:57.618Z,38.90
2018-06-25T10:20:29.270Z,39.00
2018-06-25T10:23:01.140Z,38.80
2018-06-25T10:25:32.898Z,38.70
2018-06-25T10:28:05.140Z,38.90
2018-06-25T10:30:37.087Z,38.90
2018-06-25T10:33:09.034Z,38.80
2018-06-25T10:35:40.999Z,38.80
2018-06-25T10:38:13.106Z,38.80
2018-06-25T10:40:45.090Z,38.70
2018-06-25T10:43:16.931Z,38.70
2018-06-25T10:45:48.702Z,38.70
2018-06-25T10:48:20.655Z,38.60
2018-06-25T10:50:52.633Z,38.60
2018-06-25T10:53:24.779Z,38.80
2018-06-25T10:55:56.624Z,38.80
2018-06-25T10:58:28.683Z,38.80
2018-06-25T11:01:00.588Z,38.70
2018-06-25T11:03:32.803Z,38.70
2018-06-25T11:06:04.960Z,38.60
2018-06-25T11:08:39.027Z,38.50
2018-06-25T11:11:10.817Z,38.50
2018-06-25T11:13:42.831Z,38.70
2018-06-25T11:16:14.417Z,38.70
2018-06-25T11:18:47.098Z,38.80
2018-06-25T11:21:18.791Z,38.70
2018-06-25T11:23:51.014Z,38.40
2018-06-25T11:26:22.876Z,38.30
2018-06-25T11:28:55.074Z,38.50
2018-06-25T11:31:27.019Z,38.40
2018-06-25T11:33:59.140Z,38.40
2018-06-25T11:36:31.131Z,38.50
2018-06-25T11:39:03.225Z,38.50
2018-06-25T11:41:35.227Z,38.40
2018-06-25T11:44:07.032Z,38.30
2018-06-25T11:46:38.725Z,38.10
2018-06-25T11:49:10.574Z,38.20
2018-06-25T11:51:42.525Z,38.00
2018-06-25T11:54:14.699Z,38.00
2018-06-25T11:56:46.452Z,38.00
2018-06-25T11:59:18.554Z,38.00
2018-06-25T12:01:50.626Z,38.50
2018-06-25T12:04:22.754Z,38.40
2018-06-25T12:06:54.546Z,38.10
2018-06-25T12:09:26.771Z,38.10
2018-06-25T12:11:58.615Z,38.20
2018-06-25T12:14:30.560Z,38.20
2018-06-25T12:17:02.105Z,38.00
2018-06-25T12:22:06.114Z,37.80
2018-06-25T12:24:38.140Z,37.90
2018-06-25T12:27:09.879Z,37.90
2018-06-25T12:29:42.127Z,37.90
2018-06-25T12:32:14.231Z,37.90
2018-06-25T12:34:46.644Z,38.00
2018-06-25T12:37:18.628Z,37.90
2018-06-25T12:39:50.828Z,37.90
2018-06-25T12:42:22.982Z,37.70
2018-06-25T12:44:55.287Z,37.80
2018-06-25T12:49:58.167Z,37.80
2018-06-25T12:52:30.036Z,37.70
2018-06-25T12:55:01.975Z,37.70
2018-06-25T12:57:34.712Z,37.70
2018-06-25T13:00:06.971Z,37.70
2018-06-25T13:02:38.544Z,37.70
2018-06-25T13:05:10.552Z,37.50
2018-06-25T13:07:42.443Z,37.60
2018-06-25T13:10:14.566Z,37.40
2018-06-25T13:12:46.477Z,37.30
2018-06-25T13:15:18.314Z,37.30
2018-06-25T13:17:50.270Z,37.20
2018-06-25T13:20:24.079Z,37.20
2018-06-25T13:22:56.023Z,37.30
2018-06-25T13:27:59.345Z,37.20
2018-06-25T13:30:31.370Z,37.30
2018-06-25T13:33:03.178Z,37.30
2018-06-25T13:35:35.086Z,37.30
2018-06-25T13:38:08.304Z,37.10
2018-06-25T13:40:40.363Z,37.00
2018-06-25T13:43:12.140Z,36.90
2018-06-25T13:45:44.352Z,36.80
2018-06-25T13:48:16.584Z,36.70
2018-06-25T13:50:48.863Z,36.50
2018-06-25T13:53:20.566Z,36.50
2018-06-25T13:55:52.418Z,36.40
2018-06-25T13:58:24.302Z,36.40
2018-06-25T14:00:56.687Z,36.40
2018-06-25T14:03:28.543Z,36.40
2018-06-25T14:08:31.291Z,36.30
2018-06-25T14:11:03.212Z,36.30
2018-06-25T14:16:06.131Z,36.20
2018-06-25T14:18:37.905Z,36.10
2018-06-25T14:21:11.250Z,36.10
2018-06-25T14:23:47.973Z,36.00
2018-06-25T14:26:20.251Z,36.00
2018-06-25T14:28:52.163Z,35.90
2018-06-25T14:31:26.268Z,35.90
2018-06-25T14:34:02.898Z,35.80
2018-06-25T14:36:34.889Z,35.70
2018-06-25T14:39:09.253Z,35.70
2018-06-25T14:41:41.162Z,35.80
2018-06-25T14:44:13.290Z,35.80
2018-06-25T14:46:45.251Z,35.70
2018-06-25T14:49:17.001Z,35.50
2018-06-25T14:51:49.192Z,35.50
2018-06-25T14:54:21.196Z,35.40
2018-06-25T14:56:53.415Z,35.40
2018-06-25T14:59:25.431Z,35.30
2018-06-25T15:01:57.668Z,35.20
2018-06-25T15:04:29.588Z,35.10
2018-06-25T15:07:01.956Z,35.10
2018-06-25T15:09:33.849Z,35.00
2018-06-25T15:12:06.013Z,35.10
2018-06-25T15:14:38.015Z,35.00
2018-06-25T15:17:10.403Z,35.00
2018-06-25T15:19:42.237Z,35.00
2018-06-25T15:22:15.963Z,34.90
2018-06-25T15:24:47.698Z,34.90
2018-06-25T15:27:20.031Z,34.80
2018-06-25T15:29:52.048Z,34.80
2018-06-25T15:32:25.021Z,34.70
2018-06-25T15:34:56.639Z,34.70
2018-06-25T15:37:29.095Z,34.70
2018-06-25T15:40:00.967Z,34.70
2018-06-25T15:42:33.038Z,34.60
2018-06-25T15:45:05.087Z,34.60
2018-06-25T15:47:37.002Z,34.60
2018-06-25T15:50:08.989Z,34.50
2018-06-25T15:52:40.827Z,34.50
2018-06-25T15:55:12.521Z,34.50
2018-06-25T15:57:44.464Z,34.50
2018-06-25T16:00:16.289Z,34.50
2018-06-25T16:02:48.454Z,34.40
2018-06-25T16:05:20.222Z,34.30
2018-06-25T16:07:52.274Z,34.30
2018-06-25T16:10:24.194Z,34.40
2018-06-25T16:15:27.366Z,34.30
2018-06-25T16:20:30.139Z,34.30
2018-06-25T16:23:03.040Z,34.30
2018-06-25T16:25:34.750Z,34.30
2018-06-25T16:28:06.775Z,34.20
2018-06-25T16:30:39.177Z,34.20
2018-06-25T16:33:11.242Z,34.10
2018-06-25T16:35:43.283Z,34.10
2018-06-25T16:38:15.434Z,34.10
2018-06-25T16:40:47.375Z,34.10
2018-06-25T16:43:19.265Z,34.00
2018-06-25T16:45:51.123Z,34.00
2018-06-25T16:48:23.629Z,34.00
2018-06-25T16:50:55.335Z,34.10
2018-06-25T16:53:27.301Z,34.10
2018-06-25T16:55:58.993Z,34.10
2018-06-25T16:58:31.472Z,34.10
2018-06-25T17:01:03.346Z,34.10
2018-06-25T17:03:35.438Z,34.10
2018-06-25T17:06:07.230Z,34.00
2018-06-25T17:08:39.029Z,34.00
2018-06-25T17:11:10.463Z,34.00
2018-06-25T17:13:47.424Z,33.90
2018-06-25T17:16:19.755Z,33.80
2018-06-25T17:18:51.767Z,33.80
2018-06-25T17:21:23.507Z,33.80
2018-06-25T17:23:56.770Z,33.70
2018-06-25T17:31:30.531Z,33.60
2018-06-25T17:34:02.587Z,33.60
2018-06-25T17:36:34.315Z,33.60
2018-06-25T17:39:08.966Z,33.60
2018-06-25T17:41:40.730Z,33.60
2018-06-25T17:46:44.387Z,33.50
2018-06-25T17:49:16.668Z,33.50
2018-06-25T17:51:48.606Z,33.50
2018-06-25T17:54:20.707Z,33.50
2018-06-25T17:56:52.546Z,33.40
2018-06-25T17:59:24.379Z,33.40
2018-06-25T18:01:58.061Z,33.30
2018-06-25T18:04:31.592Z,33.30
2018-06-25T18:07:03.831Z,33.30
2018-06-25T18:09:36.763Z,33.30
2018-06-25T18:12:11.153Z,33.30
2018-06-25T18:14:44.055Z,33.30
2018-06-25T18:17:20.075Z,33.20
2018-06-25T18:19:53.001Z,33.20
2018-06-25T18:22:24.967Z,33.10
2018-06-25T18:24:57.603Z,33.10
2018-06-25T18:27:29.370Z,33.10
2018-06-25T18:30:01.801Z,33.10
2018-06-25T18:32:33.881Z,33.00
2018-06-25T18:35:05.918Z,33.00
2018-06-25T18:37:37.739Z,33.00
2018-06-25T18:40:10.502Z,33.00
2018-06-25T18:45:14.232Z,32.90
2018-06-25T18:47:46.125Z,32.80
2018-06-25T18:50:18.050Z,32.80
2018-06-25T18:52:49.997Z,32.70
2018-06-25T18:55:22.009Z,32.70
2018-06-25T18:57:53.744Z,32.70
2018-06-25T19:00:25.824Z,32.70
2018-06-25T19:02:58.119Z,32.60
2018-06-25T19:05:30.055Z,32.70
2018-06-25T19:08:01.618Z,32.60
2018-06-25T19:13:04.379Z,32.50
2018-06-25T19:15:36.792Z,32.50
2018-06-25T19:18:08.652Z,32.50
2018-06-25T19:20:40.955Z,32.50
2018-06-25T19:23:12.854Z,32.40
2018-06-25T19:25:46.519Z,32.40
2018-06-25T19:33:20.552Z,32.30
2018-06-25T19:35:53.007Z,32.30
2018-06-25T19:38:24.810Z,32.20
2018-06-25T19:43:28.267Z,32.20
2018-06-25T19:46:00.397Z,32.20
2018-06-25T19:48:32.225Z,32.20
2018-06-25T19:51:04.262Z,32.20
2018-06-25T19:53:36.271Z,32.20
2018-06-25T19:56:08.435Z,32.10
2018-06-25T19:58:40.395Z,32.10
2018-06-25T20:01:12.731Z,32.10
2018-06-25T20:03:44.798Z,32.10
2018-06-25T20:06:16.834Z,32.00
2018-06-25T20:11:20.439Z,31.90
2018-06-25T20:13:52.265Z,31.90
2018-06-25T20:16:24.266Z,32.00
2018-06-25T20:18:56.737Z,31.90
2018-06-25T20:21:29.153Z,31.90
2018-06-25T20:24:01.314Z,31.90
2018-06-25T20:26:34.869Z,31.90
2018-06-25T20:29:06.426Z,31.90
2018-06-25T20:31:38.450Z,31.80
2018-06-25T20:34:10.331Z,31.80
2018-06-25T20:36:42.619Z,31.80
2018-06-25T20:39:14.409Z,31.70
2018-06-25T20:41:46.463Z,31.70
2018-06-25T20:44:18.351Z,31.80
2018-06-25T20:46:50.236Z,31.70
2018-06-25T20:49:22.022Z,31.70
2018-06-25T20:51:53.938Z,31.70
2018-06-25T20:54:25.691Z,31.70
2018-06-25T20:56:57.952Z,31.70
2018-06-25T20:59:29.633Z,31.70
2018-06-25T21:02:01.974Z,31.60
2018-06-25T21:04:34.047Z,31.60
2018-06-25T21:07:06.828Z,31.60
2018-06-25T21:09:38.433Z,31.60
2018-06-25T21:12:10.955Z,31.60
2018-06-25T21:19:44.917Z,31.40
2018-06-25T21:22:17.073Z,31.40
2018-06-25T21:24:48.713Z,31.40
2018-06-25T21:27:21.714Z,31.40
2018-06-25T21:29:53.399Z,31.40
2018-06-25T21:32:25.240Z,31.40
2018-06-25T21:34:57.010Z,31.40
2018-06-25T21:37:28.982Z,31.40
2018-06-25T21:40:00.942Z,31.30
2018-06-25T21:42:33.166Z,31.30
2018-06-25T21:45:04.998Z,31.30
2018-06-25T21:47:37.366Z,31.30
2018-06-25T21:50:09.303Z,31.30
2018-06-25T21:52:41.196Z,31.30
2018-06-25T21:57:44.384Z,31.20
2018-06-25T22:02:47.120Z,31.10
2018-06-25T22:05:18.951Z,31.10
2018-06-25T22:07:51.493Z,31.00
2018-06-25T22:10:23.375Z,30.90
2018-06-25T22:12:55.165Z,30.90
2018-06-25T22:15:26.904Z,30.80
2018-06-25T22:17:58.902Z,30.80
2018-06-25T22:20:30.771Z,30.70
2018-06-25T22:23:02.858Z,30.70
2018-06-25T22:25:34.516Z,30.60
2018-06-25T22:28:07.669Z,30.70
2018-06-25T22:30:39.670Z,30.60
2018-06-25T22:38:13.202Z,30.70
2018-06-25T22:40:45.000Z,30.60
2018-06-25T22:43:17.006Z,30.60
2018-06-25T22:45:48.982Z,30.60
2018-06-25T22:50:52.170Z,30.50
2018-06-25T22:53:24.102Z,30.50
2018-06-25T22:55:55.826Z,30.50
2018-06-25T22:58:28.040Z,30.50
2018-06-25T23:01:00.027Z,30.50
2018-06-25T23:03:32.056Z,30.50
2018-06-25T23:06:04.140Z,30.50
2018-06-25T23:08:36.138Z,30.40
2018-06-25T23:11:07.757Z,30.40
2018-06-25T23:13:39.422Z,30.40
2018-06-25T23:16:11.301Z,30.40
2018-06-25T23:18:43.397Z,30.30
2018-06-25T23:21:15.248Z,30.30
2018-06-25T23:23:47.259Z,30.30
2018-06-25T23:26:18.872Z,30.30
2018-06-25T23:28:51.290Z,30.30
2018-06-25T23:31:22.994Z,30.30
2018-06-25T23:33:55.151Z,30.20
2018-06-25T23:36:26.764Z,30.10
2018-06-25T23:38:58.800Z,30.20
2018-06-25T23:41:30.796Z,30.20
2018-06-25T23:44:03.041Z,30.20
2018-06-25T23:46:35.023Z,30.20
2018-06-25T23:49:07.082Z,30.10
2018-06-25T23:51:39.054Z,30.10
2018-06-25T23:56:42.192Z,30.10
2018-06-25T23:59:14.311Z,30.00
